createdAt,value
2019-03-03T00:00:49.332Z,56.30
2019-03-03T00:03:27.067Z,58.20
2019-03-03T00:06:13.995Z,56.70
2019-03-03T00:08:43.059Z,62.07
2019-03-03T00:11:25.109Z,67.93
2019-03-03T00:14:01.425Z,61.00
2019-03-03T00:16:32.976Z,61.17
2019-03-03T00:19:29.380Z,55.43
2019-03-03T00:21:59.578Z,63.53
2019-03-03T00:24:39.932Z,61.90
2019-03-03T00:27:15.934Z,65.70
2019-03-03T00:29:53.911Z,60.47
2019-03-03T00:32:26.888Z,57.33
2019-03-03T00:35:00.342Z,59.43
2019-03-03T00:37:56.257Z,59.33
2019-03-03T00:40:45.394Z,57.57
2019-03-03T00:43:21.526Z,55.73
2019-03-03T00:46:27.980Z,58.60
2019-03-03T00:49:41.444Z,65.23
2019-03-03T00:52:37.528Z,62.50
2019-03-03T00:55:22.952Z,56.37
2019-03-03T00:58:13.927Z,58.27
2019-03-03T01:01:03.589Z,50.93
2019-03-03T01:03:59.772Z,60.90
2019-03-03T01:06:54.254Z,58.10
2019-03-03T01:09:46.571Z,68.27
2019-03-03T01:12:38.630Z,70.07
2019-03-03T01:15:31.004Z,63.87
2019-03-03T01:18:29.123Z,58.07
2019-03-03T01:21:40.799Z,61.20
2019-03-03T01:24:28.690Z,62.00
2019-03-03T01:27:09.532Z,56.80
2019-03-03T01:29:49.296Z,59.03
2019-03-03T01:32:18.367Z,61.97
2019-03-03T01:35:11.829Z,67.53
2019-03-03T01:37:44.163Z,59.53
2019-03-03T01:40:41.050Z,56.53
2019-03-03T01:43:23.892Z,58.70
2019-03-03T01:45:57.322Z,60.10
2019-03-03T01:48:38.700Z,59.63
2019-03-03T01:51:21.134Z,54.10
2019-03-03T01:53:51.990Z,56.50
2019-03-03T01:56:30.897Z,52.80
2019-03-03T01:59:00.483Z,53.33
2019-03-03T02:01:47.190Z,50.20
2019-03-03T02:04:20.515Z,47.03
2019-03-03T02:07:01.052Z,44.87
2019-03-03T02:09:37.800Z,45.37
2019-03-03T02:12:11.328Z,39.70
2019-03-03T02:14:57.606Z,46.83
2019-03-03T02:17:40.645Z,45.73
2019-03-03T02:20:12.379Z,45.50
2019-03-03T02:22:59.644Z,41.00
2019-03-03T02:25:34.170Z,45.43
2019-03-03T02:28:07.228Z,35.87
2019-03-03T02:30:44.254Z,42.83
2019-03-03T02:33:13.415Z,40.13
2019-03-03T02:35:49.260Z,38.73
2019-03-03T02:38:27.694Z,41.20
2019-03-03T02:41:04.177Z,37.23
2019-03-03T02:43:43.984Z,36.07
2019-03-03T02:46:16.504Z,37.73
2019-03-03T02:49:00.094Z,32.23
2019-03-03T02:51:32.085Z,36.23
2019-03-03T02:54:08.810Z,36.47
2019-03-03T02:56:41.484Z,35.63
2019-03-03T02:59:21.880Z,36.40
2019-03-03T03:01:59.907Z,31.00
2019-03-03T03:04:37.054Z,32.87
2019-03-03T03:07:29.832Z,31.07
2019-03-03T03:10:22.352Z,34.70
2019-03-03T03:13:02.586Z,30.23
2019-03-03T03:16:00.607Z,32.07
2019-03-03T03:18:54.159Z,26.70
2019-03-03T03:21:39.401Z,29.67
2019-03-03T03:24:31.565Z,28.87
2019-03-03T03:27:23.438Z,28.67
2019-03-03T03:30:40.373Z,34.93
2019-03-03T03:33:37.807Z,28.90
2019-03-03T03:36:40.494Z,27.53
2019-03-03T03:39:48.625Z,31.53
2019-03-03T03:42:26.024Z,27.27
2019-03-03T03:45:29.713Z,26.70
2019-03-03T03:48:27.954Z,24.80
2019-03-03T03:51:31.613Z,27.77
2019-03-03T03:54:21.218Z,31.20
2019-03-03T03:57:08.696Z,25.37
2019-03-03T04:00:02.267Z,24.60
2019-03-03T04:03:08.030Z,24.53
2019-03-03T04:06:03.190Z,27.17
2019-03-03T04:09:10.233Z,23.67
2019-03-03T04:11:59.833Z,24.53
2019-03-03T04:14:41.053Z,25.73
2019-03-03T04:17:42.350Z,30.13
2019-03-03T04:20:36.388Z,32.17
2019-03-03T04:23:28.187Z,30.20
2019-03-03T04:26:12.731Z,26.40
2019-03-03T04:29:01.300Z,26.17
2019-03-03T04:31:55.447Z,23.97
2019-03-03T04:34:52.925Z,22.47
2019-03-03T04:37:40.995Z,24.70
2019-03-03T04:40:17.576Z,33.33
2019-03-03T04:43:07.604Z,23.27
2019-03-03T04:45:44.133Z,21.13
2019-03-03T04:48:39.898Z,25.10
2019-03-03T04:51:34.255Z,23.17
2019-03-03T04:54:41.667Z,20.90
2019-03-03T04:57:39.415Z,26.97
2019-03-03T05:00:45.375Z,23.30
2019-03-03T05:03:28.912Z,26.87
2019-03-03T05:06:06.256Z,22.07
2019-03-03T05:08:49.555Z,36.80
2019-03-03T05:12:09.520Z,20.60
2019-03-03T05:14:50.414Z,26.90
2019-03-03T05:17:30.716Z,24.67
2019-03-03T05:20:01.096Z,25.37
2019-03-03T05:22:37.971Z,24.40
2019-03-03T05:25:07.524Z,25.83
2019-03-03T05:27:43.606Z,25.37
2019-03-03T05:30:13.525Z,23.77
2019-03-03T05:32:53.302Z,21.90
2019-03-03T05:35:26.746Z,27.23
2019-03-03T05:38:01.236Z,20.20
2019-03-03T05:40:35.361Z,27.00
2019-03-03T05:43:14.798Z,24.60
2019-03-03T05:45:56.696Z,31.57
2019-03-03T05:48:29.111Z,24.53
2019-03-03T05:51:01.266Z,22.30
2019-03-03T05:53:34.642Z,22.73
2019-03-03T05:56:09.737Z,26.00
2019-03-03T05:58:41.179Z,22.67
2019-03-03T06:01:17.575Z,25.00
2019-03-03T06:03:52.440Z,28.63
2019-03-03T06:06:21.715Z,24.37
2019-03-03T06:08:56.923Z,26.23
2019-03-03T06:11:30.331Z,20.10
2019-03-03T06:14:02.730Z,25.27
2019-03-03T06:16:40.078Z,24.73
2019-03-03T06:19:13.051Z,26.30
2019-03-03T06:21:42.470Z,28.37
2019-03-03T06:24:12.760Z,26.00
2019-03-03T06:26:44.701Z,25.47
2019-03-03T06:29:17.645Z,22.03
2019-03-03T06:31:49.334Z,30.83
2019-03-03T06:34:22.039Z,25.40
2019-03-03T06:36:59.204Z,26.93
2019-03-03T06:39:29.698Z,23.97
2019-03-03T06:41:58.933Z,27.03
2019-03-03T06:44:33.002Z,22.97
2019-03-03T06:47:02.230Z,24.50
2019-03-03T06:49:36.712Z,19.37
2019-03-03T06:52:05.719Z,25.00
2019-03-03T06:54:36.060Z,20.13
2019-03-03T06:57:09.386Z,23.20
2019-03-03T06:59:50.418Z,17.93
2019-03-03T07:02:19.427Z,19.07
2019-03-03T07:04:51.422Z,21.60
2019-03-03T07:07:24.468Z,19.83
2019-03-03T07:10:06.855Z,17.67
2019-03-03T07:12:48.456Z,23.13
2019-03-03T07:15:20.917Z,25.40
2019-03-03T07:17:51.192Z,26.83
2019-03-03T07:20:27.824Z,19.93
2019-03-03T07:23:06.823Z,21.17
2019-03-03T07:25:39.119Z,21.57
2019-03-03T07:28:17.242Z,19.37
2019-03-03T07:30:47.165Z,19.57
2019-03-03T07:33:31.973Z,19.13
2019-03-03T07:36:02.422Z,15.60
2019-03-03T07:38:38.911Z,22.50
2019-03-03T07:41:17.980Z,19.47
2019-03-03T07:43:47.379Z,18.43
2019-03-03T07:46:23.417Z,16.17
2019-03-03T07:48:59.888Z,19.70
2019-03-03T07:51:38.991Z,21.10
2019-03-03T07:54:10.951Z,16.40
2019-03-03T07:56:42.094Z,19.63
2019-03-03T07:59:18.057Z,21.33
2019-03-03T08:01:49.316Z,20.07
2019-03-03T08:04:32.047Z,22.27
2019-03-03T08:07:04.903Z,20.03
2019-03-03T08:09:34.016Z,22.07
2019-03-03T08:12:11.372Z,19.13
2019-03-03T08:14:40.600Z,23.50
2019-03-03T08:17:10.699Z,20.90
2019-03-03T08:19:42.223Z,18.10
2019-03-03T08:22:14.251Z,17.43
2019-03-03T08:24:45.170Z,24.27
2019-03-03T08:27:18.021Z,20.73
2019-03-03T08:29:55.595Z,23.10
2019-03-03T08:32:31.949Z,20.23
2019-03-03T08:35:03.387Z,20.17
2019-03-03T08:37:32.521Z,21.37
2019-03-03T08:40:11.864Z,19.27
2019-03-03T08:43:01.315Z,22.67
2019-03-03T08:45:43.064Z,19.20
2019-03-03T08:48:20.916Z,22.33
2019-03-03T08:50:58.312Z,18.40
2019-03-03T08:53:55.729Z,19.20
2019-03-03T08:57:06.299Z,20.80
2019-03-03T08:59:49.302Z,17.57
2019-03-03T09:02:30.599Z,18.87
2019-03-03T09:05:12.660Z,18.97
2019-03-03T09:08:19.820Z,14.97
2019-03-03T09:11:14.272Z,16.27
2019-03-03T09:14:05.251Z,14.10
2019-03-03T09:16:58.279Z,16.03
2019-03-03T09:20:02.936Z,14.63
2019-03-03T09:22:55.408Z,13.33
2019-03-03T09:25:57.095Z,16.70
2019-03-03T09:28:58.430Z,14.07
2019-03-03T09:32:08.367Z,11.80
2019-03-03T09:35:13.646Z,14.50
2019-03-03T09:38:14.166Z,16.93
2019-03-03T09:41:30.705Z,15.67
2019-03-03T09:44:19.235Z,14.87
2019-03-03T09:47:21.901Z,12.40
2019-03-03T09:50:14.326Z,16.37
2019-03-03T09:53:00.527Z,13.73
2019-03-03T09:55:58.370Z,14.57
2019-03-03T09:58:42.815Z,13.00
2019-03-03T10:01:40.288Z,10.13
2019-03-03T10:04:40.848Z,5.97
2019-03-03T10:07:37.820Z,7.70
2019-03-03T10:10:19.739Z,7.00
2019-03-03T10:13:11.845Z,6.60
2019-03-03T10:15:58.919Z,8.90
2019-03-03T10:18:39.944Z,11.63
2019-03-03T10:21:22.946Z,7.50
2019-03-03T10:24:34.734Z,7.13
2019-03-03T10:27:33.414Z,8.23
2019-03-03T10:30:25.460Z,12.07
2019-03-03T10:33:20.700Z,13.70
2019-03-03T10:36:29.421Z,12.97
2019-03-03T10:39:30.870Z,12.27
2019-03-03T10:42:24.022Z,18.90
2019-03-03T10:45:23.272Z,17.30
2019-03-03T10:48:11.495Z,14.47
2019-03-03T10:51:05.378Z,16.27
2019-03-03T10:53:55.528Z,20.13
2019-03-03T10:56:43.276Z,12.53
2019-03-03T10:59:43.149Z,11.97
2019-03-03T11:02:40.607Z,14.87
2019-03-03T11:05:56.671Z,19.70
2019-03-03T11:08:51.780Z,18.93
2019-03-03T11:11:40.360Z,18.60
2019-03-03T11:14:58.955Z,13.07
2019-03-03T11:17:50.206Z,21.87
2019-03-03T11:23:34.033Z,17.00
2019-03-03T11:26:37.721Z,17.37
2019-03-03T11:29:36.313Z,22.33
2019-03-03T11:32:36.686Z,15.13
2019-03-03T11:35:42.144Z,21.53
2019-03-03T11:38:43.517Z,16.87
2019-03-03T11:42:01.775Z,23.43
2019-03-03T11:45:08.815Z,14.87
2019-03-03T11:48:13.623Z,18.87
2019-03-03T11:51:27.466Z,18.07
2019-03-03T11:54:11.650Z,20.40
2019-03-03T11:57:41.754Z,19.40
2019-03-03T12:00:42.678Z,14.83
2019-03-03T12:03:43.630Z,18.37
2019-03-03T12:06:45.036Z,15.23
2019-03-03T12:09:35.083Z,17.43
2019-03-03T12:12:34.164Z,14.13
2019-03-03T12:15:31.007Z,17.87
2019-03-03T12:18:33.754Z,18.07
2019-03-03T12:21:15.043Z,15.33
2019-03-03T12:24:10.970Z,22.47
2019-03-03T12:27:07.780Z,23.80
2019-03-03T12:30:12.160Z,23.70
2019-03-03T12:33:05.347Z,22.10
2019-03-03T12:36:05.896Z,22.17
2019-03-03T12:38:54.788Z,21.73
2019-03-03T12:41:52.325Z,20.53
2019-03-03T12:44:38.192Z,19.57
2019-03-03T12:47:42.092Z,21.97
2019-03-03T12:50:51.835Z,18.60
2019-03-03T12:53:51.831Z,15.53
2019-03-03T12:56:54.743Z,14.00
2019-03-03T12:59:53.151Z,15.23
2019-03-03T13:06:07.278Z,9.07
2019-03-03T13:09:07.710Z,12.23
2019-03-03T13:12:10.811Z,8.77
2019-03-03T13:15:01.294Z,8.43
2019-03-03T13:18:05.365Z,7.60
2019-03-03T13:20:48.879Z,5.10
2019-03-03T13:23:34.365Z,8.50
2019-03-03T13:26:27.808Z,7.00
2019-03-03T13:29:18.839Z,6.50
2019-03-03T13:32:07.122Z,7.37
2019-03-03T13:35:06.068Z,5.73
2019-03-03T13:38:04.863Z,6.90
2019-03-03T13:40:45.247Z,6.73
2019-03-03T13:43:15.266Z,4.73
2019-03-03T13:45:48.345Z,4.63
2019-03-03T13:48:20.395Z,5.10
2019-03-03T13:50:52.409Z,4.30
2019-03-03T13:53:25.998Z,5.20
2019-03-03T13:56:01.180Z,5.73
2019-03-03T13:58:42.723Z,4.43
2019-03-03T14:01:20.580Z,6.60
2019-03-03T14:03:58.967Z,5.97
2019-03-03T14:06:29.363Z,7.10
2019-03-03T14:08:58.552Z,4.27
2019-03-03T14:11:35.405Z,6.33
2019-03-03T14:14:10.955Z,5.33
2019-03-03T14:16:46.851Z,6.53
2019-03-03T14:19:21.999Z,8.67
2019-03-03T14:22:02.736Z,5.80
2019-03-03T14:24:35.591Z,8.57
2019-03-03T14:27:10.518Z,9.47
2019-03-03T14:29:39.867Z,5.60
2019-03-03T14:32:10.004Z,5.03
2019-03-03T14:34:42.334Z,4.17
2019-03-03T14:37:11.643Z,6.27
2019-03-03T14:40:01.340Z,9.33
2019-03-03T14:42:36.578Z,6.13
2019-03-03T14:45:11.697Z,5.17
2019-03-03T14:47:57.438Z,3.73
2019-03-03T14:50:28.621Z,3.43
2019-03-03T14:53:00.472Z,5.40
2019-03-03T14:55:29.802Z,6.67
2019-03-03T14:58:09.033Z,3.93
2019-03-03T15:00:39.013Z,2.87
2019-03-03T15:03:13.725Z,3.40
2019-03-03T15:05:44.150Z,3.83
2019-03-03T15:08:17.719Z,3.37
2019-03-03T15:10:56.393Z,6.93
2019-03-03T15:13:38.003Z,3.23
2019-03-03T15:16:09.360Z,4.47
2019-03-03T15:18:43.052Z,2.17
2019-03-03T15:21:24.517Z,3.90
2019-03-03T15:23:46.899Z,2.10
2019-03-03T15:26:25.401Z,2.03
2019-03-03T15:28:56.841Z,4.17
2019-03-03T15:31:37.960Z,6.00
2019-03-03T15:34:06.732Z,2.80
2019-03-03T15:36:41.875Z,4.43
2019-03-03T15:39:16.824Z,3.97
2019-03-03T15:41:52.115Z,6.37
2019-03-03T15:45:04.940Z,5.47
2019-03-03T15:47:37.281Z,2.07
2019-03-03T15:50:10.462Z,3.27
2019-03-03T15:52:39.844Z,4.27
2019-03-03T15:55:10.874Z,4.00
2019-03-03T15:57:59.130Z,2.10
2019-03-03T16:00:32.011Z,2.87
2019-03-03T16:03:05.588Z,2.27
2019-03-03T16:05:34.775Z,2.73
2019-03-03T16:08:04.130Z,4.77
2019-03-03T16:10:41.016Z,4.37
2019-03-03T16:13:13.388Z,6.67
2019-03-03T16:15:42.828Z,10.97
2019-03-03T16:18:21.010Z,7.77
2019-03-03T16:20:57.392Z,6.57
2019-03-03T16:23:39.190Z,5.07
2019-03-03T16:26:08.585Z,5.23
2019-03-03T16:28:39.363Z,4.17
2019-03-03T16:31:13.974Z,3.17
2019-03-03T16:33:45.946Z,3.43
2019-03-03T16:36:25.190Z,3.47
2019-03-03T16:39:02.384Z,3.93
2019-03-03T16:41:43.121Z,3.57
2019-03-03T16:44:22.584Z,6.93
2019-03-03T16:46:53.182Z,11.03
2019-03-03T16:49:23.655Z,8.73
2019-03-03T16:52:07.988Z,9.90
2019-03-03T16:54:50.004Z,10.70
2019-03-03T16:57:22.060Z,5.80
2019-03-03T16:59:58.052Z,8.23
2019-03-03T17:02:27.315Z,4.40
2019-03-03T17:05:02.750Z,6.13
2019-03-03T17:07:34.215Z,9.20
2019-03-03T17:10:11.205Z,12.87
2019-03-03T17:12:41.817Z,9.67
2019-03-03T17:15:18.638Z,11.07
2019-03-03T17:17:50.806Z,11.07
2019-03-03T17:20:26.316Z,11.10
2019-03-03T17:23:08.111Z,15.90
2019-03-03T17:25:42.583Z,11.93
2019-03-03T17:28:12.588Z,15.53
2019-03-03T17:34:13.639Z,16.53
2019-03-03T17:36:45.872Z,24.87
2019-03-03T17:39:22.546Z,26.63
2019-03-03T17:41:57.581Z,29.77
2019-03-03T17:44:31.177Z,31.60
2019-03-03T17:47:03.898Z,19.80
2019-03-03T17:49:46.666Z,26.30
2019-03-03T17:52:21.241Z,18.80
2019-03-03T17:54:53.851Z,26.70
2019-03-03T17:57:43.573Z,22.03
2019-03-03T18:00:24.962Z,17.93
2019-03-03T18:02:56.969Z,16.43
2019-03-03T18:05:37.233Z,14.13
2019-03-03T18:08:35.016Z,22.87
2019-03-03T18:11:08.418Z,17.17
2019-03-03T18:13:43.267Z,15.70
2019-03-03T18:16:14.012Z,19.50
2019-03-03T18:18:58.870Z,15.57
2019-03-03T18:21:30.261Z,18.97
2019-03-03T18:24:03.288Z,19.63
2019-03-03T18:26:41.363Z,18.80
2019-03-03T18:29:12.438Z,13.87
2019-03-03T18:31:44.594Z,19.00
2019-03-03T18:34:18.350Z,15.23
2019-03-03T18:36:55.429Z,11.20
2019-03-03T18:39:32.451Z,13.50
2019-03-03T18:42:08.693Z,17.40
2019-03-03T18:44:46.711Z,17.67
2019-03-03T18:47:24.531Z,19.70
2019-03-03T18:50:37.726Z,14.03
2019-03-03T18:53:34.718Z,19.23
2019-03-03T18:56:08.814Z,15.10
2019-03-03T18:58:49.998Z,17.77
2019-03-03T19:01:28.359Z,18.00
2019-03-03T19:03:58.842Z,16.97
2019-03-03T19:06:41.880Z,18.17
2019-03-03T19:09:20.577Z,16.63
2019-03-03T19:11:58.005Z,15.73
2019-03-03T19:14:28.446Z,17.60
2019-03-03T19:17:06.059Z,18.43
2019-03-03T19:19:34.989Z,19.80
2019-03-03T19:22:12.359Z,16.43
2019-03-03T19:24:49.278Z,18.60
2019-03-03T19:27:19.870Z,18.93
2019-03-03T19:29:57.091Z,16.13
2019-03-03T19:32:29.399Z,22.00
2019-03-03T19:35:02.231Z,18.33
2019-03-03T19:37:35.739Z,17.93
2019-03-03T19:40:12.900Z,19.30
2019-03-03T19:42:46.780Z,21.43
2019-03-03T19:45:21.110Z,19.90
2019-03-03T19:47:53.655Z,24.33
2019-03-03T19:50:29.491Z,19.80
2019-03-03T19:53:04.712Z,23.20
2019-03-03T19:55:46.984Z,22.73
2019-03-03T19:58:16.136Z,21.13
2019-03-03T20:00:50.528Z,20.60
2019-03-03T20:03:34.328Z,25.50
2019-03-03T20:06:17.249Z,18.00
2019-03-03T20:08:49.158Z,24.83
2019-03-03T20:11:26.500Z,25.33
2019-03-03T20:14:10.253Z,22.50
2019-03-03T20:16:45.542Z,21.73
2019-03-03T20:19:23.366Z,26.60
2019-03-03T20:22:01.615Z,24.80
2019-03-03T20:24:39.041Z,22.20
2019-03-03T20:27:16.638Z,23.70
2019-03-03T20:29:45.630Z,31.87
2019-03-03T20:32:26.986Z,28.20
2019-03-03T20:35:01.558Z,30.80
2019-03-03T20:37:35.250Z,27.20
2019-03-03T20:40:11.020Z,29.00
2019-03-03T20:42:45.816Z,27.83
2019-03-03T20:45:28.034Z,35.60
2019-03-03T20:47:59.077Z,31.10
2019-03-03T20:50:32.119Z,29.90
2019-03-03T20:53:04.033Z,30.93
2019-03-03T20:55:38.735Z,28.67
2019-03-03T20:58:10.539Z,30.83
2019-03-03T21:00:54.908Z,31.97
2019-03-03T21:03:23.438Z,33.63
2019-03-03T21:06:05.498Z,27.90
2019-03-03T21:08:37.845Z,32.00
2019-03-03T21:11:16.015Z,37.10
2019-03-03T21:13:53.007Z,36.83
2019-03-03T21:16:29.902Z,36.53
2019-03-03T21:19:07.472Z,39.63
2019-03-03T21:21:38.684Z,43.90
2019-03-03T21:24:15.162Z,41.93
2019-03-03T21:26:50.856Z,37.37
2019-03-03T21:29:20.869Z,34.37
2019-03-03T21:31:54.312Z,37.30
2019-03-03T21:34:28.525Z,39.73
2019-03-03T21:37:04.017Z,36.80
2019-03-03T21:39:37.313Z,33.60
2019-03-03T21:42:18.535Z,41.73
2019-03-03T21:45:02.816Z,41.10
2019-03-03T21:47:34.051Z,33.53
2019-03-03T21:50:12.556Z,39.17
2019-03-03T21:52:44.214Z,42.13
2019-03-03T21:55:13.579Z,44.53
2019-03-03T21:57:44.926Z,38.43
2019-03-03T22:00:38.514Z,45.70
2019-03-03T22:03:17.526Z,39.17
2019-03-03T22:05:46.795Z,42.23
2019-03-03T22:08:27.071Z,37.13
2019-03-03T22:11:07.717Z,42.40
2019-03-03T22:13:44.908Z,36.17
2019-03-03T22:16:17.581Z,39.30
2019-03-03T22:18:48.878Z,36.03
2019-03-03T22:21:26.134Z,36.13
2019-03-03T22:24:02.939Z,34.00
2019-03-03T22:26:43.791Z,35.80
2019-03-03T22:29:25.214Z,34.17
2019-03-03T22:32:02.163Z,35.73
2019-03-03T22:34:36.668Z,33.27
2019-03-03T22:37:08.396Z,34.07
2019-03-03T22:39:37.586Z,36.30
2019-03-03T22:42:14.301Z,35.70
2019-03-03T22:44:44.739Z,31.77
2019-03-03T22:47:15.423Z,37.67
2019-03-03T22:49:48.379Z,34.40
2019-03-03T22:52:23.881Z,38.73
2019-03-03T22:55:05.586Z,29.13
2019-03-03T22:57:54.398Z,34.80
2019-03-03T23:00:49.151Z,29.50
2019-03-03T23:04:02.069Z,29.77
2019-03-03T23:06:51.100Z,30.70
2019-03-03T23:10:20.103Z,28.80
2019-03-03T23:13:46.598Z,25.57
2019-03-03T23:16:52.710Z,25.30
2019-03-03T23:20:15.815Z,30.37
2019-03-03T23:23:43.261Z,31.87
2019-03-03T23:26:16.496Z,26.67
2019-03-03T23:28:49.170Z,25.40
2019-03-03T23:31:26.574Z,35.30
2019-03-03T23:34:03.260Z,34.20
2019-03-03T23:36:43.434Z,27.80
2019-03-03T23:39:15.833Z,23.43
2019-03-03T23:41:49.024Z,31.37
2019-03-03T23:44:33.201Z,28.60
2019-03-03T23:47:10.450Z,21.80
2019-03-03T23:49:46.086Z,26.13
2019-03-03T23:52:19.335Z,26.67
2019-03-03T23:55:04.507Z,28.17
2019-03-03T23:57:38.157Z,30.53
